Time;durP1;ratioP1;P1;durP2;ratioP2;P2;SDS_P1;SDS_P2;PMS_P1;PMS_P2;Temp;Humidity;BMP_temperature;BMP_pressure;BME280_temperature;BME280_humidity;BME280_pressure;Samples;Min_cycle;Max_cycle;Signal;HPM_P1;HPM_P2
2023/12/08 00:04:01;;;;;;;10.10;9.10;;;;;;;-1.78;100.00;98394.72;15271482;19;20011;-56
2023/12/08 00:09:27;;;;;;;9.50;8.60;;;;;;;-1.78;100.00;98394.72;15270275;19;20095;-56
2023/12/08 00:14:55;;;;;;;9.13;8.30;;;;;;;-1.81;100.00;98400.16;15271163;19;20030;-57
2023/12/08 00:20:21;;;;;;;9.13;8.15;;;;;;;-1.83;100.00;98381.78;15272187;19;20514;-58
2023/12/08 00:25:45;;;;;;;9.05;8.15;;;;;;;-1.83;100.00;98370.38;15269546;19;20017;-59
2023/12/08 00:31:14;;;;;;;9.88;8.52;;;;;;;-1.86;100.00;98374.00;15271102;19;20018;-54
2023/12/08 00:36:38;;;;;;;9.27;8.25;;;;;;;-1.84;100.00;98363.38;15272234;19;20014;-56
2023/12/08 00:42:03;;;;;;;8.60;7.78;;;;;;;-1.88;100.00;98360.91;15263956;19;20015;-58
2023/12/08 00:47:30;;;;;;;9.52;8.15;;;;;;;-1.89;100.00;98343.34;15271832;19;20370;-56
2023/12/08 00:52:55;;;;;;;8.00;7.20;;;;;;;-1.91;100.00;98342.59;15270023;19;20089;-55
2023/12/08 00:58:22;;;;;;;7.57;6.80;;;;;;;-1.91;100.00;98342.59;15268209;19;20018;-54
2023/12/08 01:03:50;;;;;;;7.68;6.97;;;;;;;-1.93;100.00;98323.34;15270409;19;20078;-59
2023/12/08 01:09:15;;;;;;;7.35;6.28;;;;;;;-1.94;100.00;98323.44;15270428;19;20496;-56
2023/12/08 01:14:40;;;;;;;7.25;6.55;;;;;;;-1.95;100.00;98324.38;15267485;19;20018;-56
2023/12/08 01:20:07;;;;;;;6.32;5.72;;;;;;;-1.99;100.00;98318.41;15275048;19;20095;-54
2023/12/08 01:25:33;;;;;;;6.72;5.80;;;;;;;-2.04;100.00;98310.75;15285634;19;20024;-57
2023/12/08 01:30:57;;;;;;;6.30;5.60;;;;;;;-2.09;100.00;98291.66;15276911;19;20432;-57
2023/12/08 01:36:24;;;;;;;7.35;5.68;;;;;;;-2.11;100.00;98276.84;15284953;19;20471;-54
2023/12/08 01:42:00;;;;;;;6.40;5.75;;;;;;;-2.12;100.00;98267.22;15283286;19;20025;-56
2023/12/08 01:47:25;;;;;;;7.95;5.82;;;;;;;-2.15;100.00;98270.91;15284266;19;20030;-56
2023/12/08 01:52:52;;;;;;;5.97;5.38;;;;;;;-2.17;100.00;98268.31;15278939;19;20022;-56
2023/12/08 01:58:17;;;;;;;5.88;5.15;;;;;;;-2.21;100.00;98266.81;15284394;19;20430;-57
2023/12/08 02:03:44;;;;;;;5.95;5.32;;;;;;;-2.21;100.00;98263.28;15276363;19;20014;-56
2023/12/08 02:09:12;;;;;;;6.75;5.25;;;;;;;-2.28;100.00;98257.50;15283443;19;20019;-58
2023/12/08 02:14:37;;;;;;;5.25;4.75;;;;;;;-2.32;100.00;98248.91;15277894;19;20034;-56
2023/12/08 02:20:03;;;;;;;5.20;4.70;;;;;;;-2.31;100.00;98260.34;15283496;19;20037;-52
2023/12/08 02:25:31;;;;;;;5.60;5.10;;;;;;;-2.34;100.00;98250.78;15283197;19;20085;-54
2023/12/08 02:30:59;;;;;;;5.30;4.80;;;;;;;-2.38;100.00;98217.59;15275722;19;20022;-54
2023/12/08 02:36:26;;;;;;;5.07;4.57;;;;;;;-2.40;100.00;98186.94;15278887;19;20348;-55
2023/12/08 02:41:54;;;;;;;5.43;4.93;;;;;;;-2.42;100.00;98179.13;15281215;19;20031;-53
2023/12/08 02:47:20;;;;;;;6.40;5.18;;;;;;;-2.42;100.00;98151.91;15282480;19;20293;-52
2023/12/08 02:52:46;;;;;;;5.65;5.13;;;;;;;-2.43;100.00;98148.41;15276638;19;20466;-52
2023/12/08 02:58:15;;;;;;;6.38;5.15;;;;;;;-2.41;100.00;98138.63;15279601;19;20025;-54
2023/12/08 03:03:40;;;;;;;6.80;5.55;;;;;;;-2.40;100.00;98134.19;15274398;19;20019;-56
2023/12/08 03:09:05;;;;;;;5.55;5.03;;;;;;;-2.42;100.00;98167.75;15277623;19;20097;-53
2023/12/08 03:14:36;;;;;;;5.88;5.00;;;;;;;-2.44;100.00;98173.09;15274677;19;20014;-58
2023/12/08 03:20:01;;;;;;;5.90;5.30;;;;;;;-2.45;100.00;98175.81;15278055;19;20468;-56
2023/12/08 03:25:26;;;;;;;5.30;4.72;;;;;;;-2.47;100.00;98170.63;15277886;19;20010;-55
2023/12/08 03:30:53;;;;;;;5.20;4.70;;;;;;;-2.48;100.00;98171.56;15276116;19;20361;-53
2023/12/08 03:36:18;;;;;;;4.95;4.45;;;;;;;-2.48;100.00;98163.66;15272309;19;20368;-53
2023/12/08 03:41:42;;;;;;;5.97;4.82;;;;;;;-2.49;100.00;98152.25;15273105;19;20014;-54
2023/12/08 03:47:10;;;;;;;5.20;4.70;;;;;;;-2.44;100.00;98141.44;15276088;19;20010;-52
2023/12/08 03:52:42;;;;;;;5.50;4.50;;;;;;;-2.37;100.00;98134.03;15260280;19;20352;-60
2023/12/08 03:58:07;;;;;;;5.18;4.68;;;;;;;-2.29;100.00;98118.59;15267497;19;20018;-59
2023/12/08 04:03:39;;;;;;;4.50;4.05;;;;;;;-2.24;100.00;98102.53;15270568;19;20537;-59
2023/12/08 04:09:04;;;;;;;4.13;3.72;;;;;;;-2.20;100.00;98096.09;15274124;19;20023;-60
2023/12/08 04:14:28;;;;;;;4.68;4.18;;;;;;;-2.16;100.00;98089.72;15271234;19;20014;-58
2023/12/08 04:19:56;;;;;;;4.40;4.00;;;;;;;-2.12;100.00;98082.47;15278439;19;20526;-58
2023/12/08 04:25:22;;;;;;;4.30;3.78;;;;;;;-2.08;100.00;98091.91;15274477;19;20015;-60
2023/12/08 04:30:47;;;;;;;3.97;3.58;;;;;;;-2.05;100.00;98103.13;15271340;19;20085;-60
2023/12/08 04:36:17;;;;;;;4.70;3.85;;;;;;;-2.02;100.00;98096.81;15277993;19;20014;-61
2023/12/08 04:41:42;;;;;;;4.25;3.67;;;;;;;-2.00;100.00;98110.78;15273749;19;20039;-60
2023/12/08 04:47:07;;;;;;;4.15;3.75;;;;;;;-1.98;100.00;98124.75;15278362;19;20537;-58
2023/12/08 04:52:37;;;;;;;5.20;3.80;;;;;;;-1.97;100.00;98101.81;15269578;19;20018;-62
2023/12/08 04:58:01;;;;;;;3.85;3.50;;;;;;;-1.96;100.00;98091.19;15273932;19;20021;-62
2023/12/08 05:03:27;;;;;;;3.85;3.00;;;;;;;-1.93;100.00;98083.06;15271402;19;20029;-59
2023/12/08 05:08:55;;;;;;;3.22;2.92;;;;;;;-1.89;100.00;98081.97;15276723;19;20018;-61
2023/12/08 05:14:20;;;;;;;3.47;3.17;;;;;;;-1.87;100.00;98051.03;15274076;19;20424;-61
2023/12/08 05:19:44;;;;;;;3.50;3.03;;;;;;;-1.82;100.00;98045.47;15276306;19;20028;-58
2023/12/08 05:25:12;;;;;;;4.22;3.30;;;;;;;-1.78;100.00;98036.44;15272004;19;20020;-59
2023/12/08 05:30:37;;;;;;;3.70;3.35;;;;;;;-1.71;100.00;98024.53;15272092;19;20022;-59
2023/12/08 05:36:03;;;;;;;3.30;3.00;;;;;;;-1.67;100.00;98019.91;15269929;19;20018;-62
2023/12/08 05:41:30;;;;;;;3.85;3.05;;;;;;;-1.61;100.00;98022.19;15268557;19;20025;-58
2023/12/08 05:46:55;;;;;;;3.50;3.20;;;;;;;-1.57;100.00;98028.13;15270632;19;20093;-55
2023/12/08 05:52:27;;;;;;;3.50;3.20;;;;;;;-1.51;100.00;98024.25;15268269;19;20019;-55
2023/12/08 05:57:54;;;;;;;3.25;2.65;;;;;;;-1.47;100.00;98034.53;15275705;19;20093;-59
2023/12/08 06:03:19;;;;;;;4.68;3.20;;;;;;;-1.41;100.00;98033.31;15273616;19;20025;-58
2023/12/08 06:08:44;;;;;;;2.90;2.70;;;;;;;-1.36;100.00;98036.53;15287537;19;20017;-58
2023/12/08 06:14:11;;;;;;;3.28;2.95;;;;;;;-1.30;100.00;98044.06;15281781;19;20017;-58
2023/12/08 06:19:36;;;;;;;3.00;2.70;;;;;;;-1.25;100.00;98044.63;15288752;19;20775;-56
2023/12/08 06:25:00;;;;;;;3.20;2.90;;;;;;;-1.20;100.00;98039.06;15281550;19;20318;-60
2023/12/08 06:30:28;;;;;;;3.00;2.70;;;;;;;-1.18;100.00;98017.81;15279710;19;20323;-62
2023/12/08 06:35:52;;;;;;;2.90;2.70;;;;;;;-1.15;100.00;98033.47;15285210;19;20014;-59
2023/12/08 06:41:17;;;;;;;2.80;2.60;;;;;;;-1.13;100.00;98042.16;15280194;19;20018;-59
2023/12/08 06:46:44;;;;;;;3.15;2.55;;;;;;;-1.10;100.00;98028.72;15281641;19;20482;-60
2023/12/08 06:52:09;;;;;;;3.58;2.90;;;;;;;-1.10;100.00;98015.50;15276068;19;20734;-59
2023/12/08 06:57:34;;;;;;;4.30;3.08;;;;;;;-1.05;100.00;98002.84;15282206;19;20066;-56
2023/12/08 07:03:01;;;;;;;3.53;3.08;;;;;;;-1.02;100.00;98007.97;15280816;19;20014;-56
2023/12/08 07:08:26;;;;;;;3.58;2.90;;;;;;;-1.01;100.00;98011.44;15283944;19;20899;-63
2023/12/08 07:13:52;;;;;;;3.20;2.90;;;;;;;-0.99;100.00;97999.81;15280618;19;20014;-59
2023/12/08 07:19:20;;;;;;;3.60;3.10;;;;;;;-0.98;100.00;97988.28;15280788;19;20039;-62
2023/12/08 07:24:46;;;;;;;3.33;2.92;;;;;;;-0.97;100.00;97987.34;15275655;19;20038;-59
2023/12/08 07:30:11;;;;;;;10.60;3.17;;;;;;;-0.96;100.00;97975.81;15275503;19;20027;-63
2023/12/08 07:35:39;;;;;;;3.22;2.92;;;;;;;-0.93;100.00;97987.97;15275694;19;20018;-55
2023/12/08 07:41:03;;;;;;;3.55;3.25;;;;;;;-0.91;100.00;97977.31;15276951;19;20010;-56
2023/12/08 07:46:29;;;;;;;3.17;2.88;;;;;;;-0.88;100.00;97966.56;15281562;19;20066;-62
2023/12/08 07:51:57;;;;;;;3.63;2.85;;;;;;;-0.86;100.00;97964.63;15273776;19;20341;-58
2023/12/08 07:57:22;;;;;;;3.47;2.80;;;;;;;-0.82;100.00;97966.13;15278122;19;20035;-62
2023/12/08 08:02:47;;;;;;;2.97;2.75;;;;;;;-0.79;100.00;97976.53;15274857;19;20022;-59
2023/12/08 08:08:15;;;;;;;3.08;2.67;;;;;;;-0.76;100.00;97968.34;15278636;19;20746;-59
2023/12/08 08:13:39;;;;;;;3.05;2.70;;;;;;;-0.70;100.00;97967.09;15273892;19;20014;-61
2023/12/08 08:19:05;;;;;;;3.10;2.78;;;;;;;-0.63;100.00;97976.34;15278753;19;20052;-59
2023/12/08 08:24:33;;;;;;;3.08;2.78;;;;;;;-0.54;100.00;97970.44;15275782;19;20486;-57
2023/12/08 08:29:58;;;;;;;2.88;2.67;;;;;;;-0.44;100.00;97968.03;15276055;19;20778;-57
2023/12/08 08:35:23;;;;;;;4.38;3.08;;;;;;;-0.35;100.00;97983.28;15267654;19;20459;-57
2023/12/08 08:40:52;;;;;;;3.00;2.70;;;;;;;-0.24;100.00;97977.28;15274155;19;20020;-57
2023/12/08 08:46:17;;;;;;;3.30;2.80;;;;;;;-0.15;100.00;97981.06;15277720;19;20094;-56
2023/12/08 08:51:44;;;;;;;3.30;2.78;;;;;;;-0.04;100.00;97967.94;15272716;19;20018;-57
2023/12/08 08:57:11;;;;;;;2.92;2.70;;;;;;;0.06;100.00;97970.00;15274862;19;20483;-59
2023/12/08 09:02:36;;;;;;;2.95;2.63;;;;;;;0.18;100.00;97982.34;15273411;19;20036;-61
2023/12/08 09:08:02;;;;;;;3.42;3.08;;;;;;;0.28;100.00;97972.84;15275753;19;20077;-59
2023/12/08 09:13:32;;;;;;;2.83;2.60;;;;;;;0.39;100.00;97958.81;15273744;19;20029;-59
2023/12/08 09:18:56;;;;;;;2.92;2.72;;;;;;;0.48;100.00;97952.03;15275748;19;20014;-57
2023/12/08 09:24:21;;;;;;;3.33;2.58;;;;;;;0.58;100.00;97950.41;15271995;19;20011;-56
2023/12/08 09:29:48;;;;;;;3.55;2.90;;;;;;;0.65;100.00;97948.16;15277335;19;20090;-64
2023/12/08 09:35:13;;;;;;;3.28;2.55;;;;;;;0.73;100.00;97953.75;15269291;19;20470;-60
2023/12/08 09:40:40;;;;;;;3.58;2.60;;;;;;;0.78;100.00;97945.44;15267099;19;20363;-58
2023/12/08 09:46:09;;;;;;;2.88;2.60;;;;;;;0.83;100.00;97951.28;15286035;19;20367;-58
2023/12/08 09:51:34;;;;;;;2.63;2.42;;;;;;;0.86;100.00;97948.41;15283235;19;20019;-79
2023/12/08 09:57:03;;;;;;;3.72;3.00;;;;;;;0.88;100.00;97941.16;15293580;19;20098;-78
2023/12/08 10:02:30;;;;;;;3.30;2.90;;;;;;;0.88;100.00;97930.56;15301042;19;20014;-78
2023/12/08 10:07:57;;;;;;;4.00;3.30;;;;;;;0.89;100.00;97923.47;15304010;19;20018;-79
2023/12/08 10:13:22;;;;;;;3.50;3.17;;;;;;;0.90;100.00;97936.59;15296953;19;20007;-79
2023/12/08 10:18:52;;;;;;;3.97;3.20;;;;;;;0.89;100.00;97924.31;15300456;19;20026;-79
2023/12/08 10:24:17;;;;;;;3.58;3.00;;;;;;;0.90;100.00;97930.47;15301615;19;20014;-79
2023/12/08 10:29:36;;;;;;;3.08;2.78;;;;;;;0.90;100.00;97931.31;15298056;19;20090;-81
2023/12/08 10:35:04;;;;;;;3.20;2.90;;;;;;;0.95;100.00;97916.88;15293346;19;20031;-79
2023/12/08 10:40:30;;;;;;;2.65;2.40;;;;;;;0.99;100.00;97921.00;15283897;19;20010;-78
2023/12/08 10:45:56;;;;;;;3.08;2.75;;;;;;;1.02;100.00;97923.41;15297291;19;20010;-79
2023/12/08 10:51:26;;;;;;;3.08;2.80;;;;;;;1.06;100.00;97907.13;14776770;19;10000645;-78
2023/12/08 10:56:51;;;;;;;4.20;3.20;;;;;;;1.09;100.00;97916.69;15306534;19;20042;-79
2023/12/08 11:02:25;;;;;;;4.22;3.00;;;;;;;1.11;100.00;97919.22;15321269;19;20022;-79
2023/12/08 11:07:55;;;;;;;3.17;2.83;;;;;;;1.12;100.00;97919.09;15324423;19;20015;-81
2023/12/08 11:13:29;;;;;;;3.38;2.83;;;;;;;1.19;100.00;97919.50;15285909;19;20035;-79
2023/12/08 11:18:55;;;;;;;4.38;3.25;;;;;;;1.23;100.00;97921.81;15288124;19;20509;-78
2023/12/08 11:24:23;;;;;;;4.20;3.10;;;;;;;1.27;100.00;97921.56;15286511;19;20034;-78
2023/12/08 11:29:54;;;;;;;3.38;3.00;;;;;;;1.31;100.00;97917.75;15289775;19;20021;-78
2023/12/08 11:35:21;;;;;;;5.15;3.78;;;;;;;1.32;100.00;97908.81;15280582;19;20074;-78
2023/12/08 11:40:57;;;;;;;4.68;3.90;;;;;;;1.32;100.00;97914.97;15285755;19;20109;-78
2023/12/08 11:46:24;;;;;;;4.53;4.00;;;;;;;1.30;100.00;97911.56;15288648;19;20509;-79
2023/12/08 11:52:09;;;;;;;4.85;3.95;;;;;;;1.31;100.00;97917.75;15286816;19;20394;-79
2023/12/08 11:57:38;;;;;;;5.13;4.18;;;;;;;1.28;100.00;97904.69;15286539;19;20370;-79
2023/12/08 12:03:05;;;;;;;4.40;4.00;;;;;;;1.26;100.00;97903.97;15282005;19;20018;-78
2023/12/08 12:08:37;;;;;;;5.07;4.10;;;;;;;1.21;100.00;97894.56;15281801;19;20739;-77
2023/12/08 12:14:07;;;;;;;4.32;3.85;;;;;;;1.17;100.00;97898.41;15274640;19;20039;-76
2023/12/08 12:19:33;;;;;;;4.80;4.30;;;;;;;1.13;100.00;97902.22;15279870;19;20521;-76
2023/12/08 12:24:58;;;;;;;6.55;3.80;;;;;;;1.09;100.00;97898.13;15281585;19;20279;-78
2023/12/08 12:30:33;;;;;;;5.47;3.95;;;;;;;1.05;100.00;97902.81;15278158;19;20021;-75
2023/12/08 12:35:58;;;;;;;5.40;4.00;;;;;;;1.03;100.00;97903.88;15279047;19;20074;-77
2023/12/08 12:41:30;;;;;;;5.22;4.10;;;;;;;1.04;100.00;97906.44;15279227;19;20014;-75
2023/12/08 12:46:58;;;;;;;4.90;4.38;;;;;;;1.01;100.00;97911.09;15283708;19;20583;-79
2023/12/08 12:52:30;;;;;;;4.53;3.88;;;;;;;0.96;100.00;97910.59;15270298;19;20014;-77
2023/12/08 12:57:55;;;;;;;5.25;4.30;;;;;;;0.92;100.00;97923.25;15278240;19;20025;-77
2023/12/08 13:03:25;;;;;;;4.90;4.50;;;;;;;0.87;100.00;97909.47;15279752;19;20022;-77
2023/12/08 13:08:51;;;;;;;4.90;4.40;;;;;;;0.85;100.00;97911.38;15275480;19;20039;-77
2023/12/08 13:14:15;;;;;;;5.40;4.72;;;;;;;0.81;100.00;97910.75;15270411;19;20032;-79
2023/12/08 13:19:43;;;;;;;6.07;4.80;;;;;;;0.80;100.00;97910.88;15274201;19;20010;-76
2023/12/08 13:25:08;;;;;;;6.90;4.60;;;;;;;0.79;100.00;97917.97;15272403;19;20015;-76
2023/12/08 13:30:34;;;;;;;6.32;5.03;;;;;;;0.80;100.00;97916.19;15270621;19;20014;-75
2023/12/08 13:36:00;;;;;;;6.65;5.32;;;;;;;0.78;100.00;97926.88;15270742;19;20552;-77
2023/12/08 13:41:25;;;;;;;5.93;5.07;;;;;;;0.77;100.00;97931.38;15269336;19;20011;-77
2023/12/08 13:46:51;;;;;;;5.55;4.93;;;;;;;0.74;100.00;97942.19;15261680;19;20026;-78
2023/12/08 13:52:25;;;;;;;6.43;5.22;;;;;;;0.74;100.00;97944.00;15245681;19;20322;-78
2023/12/08 13:57:52;;;;;;;7.75;5.70;;;;;;;0.73;100.00;97943.13;15248466;19;20021;-75
2023/12/08 14:03:17;;;;;;;7.28;6.00;;;;;;;0.71;100.00;97942.41;15245521;19;20022;-78
2023/12/08 14:08:45;;;;;;;7.45;6.20;;;;;;;0.70;100.00;97954.00;15242598;19;20018;-77
2023/12/08 14:14:10;;;;;;;9.43;6.45;;;;;;;0.67;100.00;97959.50;15241667;19;20218;-75
2023/12/08 14:19:35;;;;;;;7.85;6.20;;;;;;;0.67;100.00;97963.94;15233489;19;20048;-76
2023/12/08 14:25:03;;;;;;;7.30;6.45;;;;;;;0.68;100.00;97955.03;15245271;19;20022;-74
2023/12/08 14:30:28;;;;;;;7.82;6.75;;;;;;;0.69;100.00;97962.03;15247483;19;20023;-74
2023/12/08 14:35:53;;;;;;;7.30;6.50;;;;;;;0.69;100.00;97972.63;15246408;19;20018;-75
2023/12/08 14:41:23;;;;;;;8.80;6.50;;;;;;;0.70;100.00;97980.50;15247748;19;20049;-74
2023/12/08 14:46:49;;;;;;;9.63;6.68;;;;;;;0.70;100.00;97974.34;15246227;19;20469;-76
2023/12/08 14:52:14;;;;;;;7.53;6.15;;;;;;;0.71;100.00;97981.34;15242473;19;20010;-75
2023/12/08 14:57:42;;;;;;;8.15;6.60;;;;;;;0.71;100.00;97989.28;15249860;19;20015;-76
2023/12/08 15:03:08;;;;;;;7.32;6.43;;;;;;;0.73;100.00;97984.72;15248591;19;20026;-74
2023/12/08 15:08:34;;;;;;;6.80;6.10;;;;;;;0.74;100.00;97992.56;15247620;19;20055;-76
2023/12/08 15:14:07;;;;;;;7.53;6.45;;;;;;;0.75;100.00;97996.91;15246176;19;20021;-76
2023/12/08 15:19:31;;;;;;;8.27;6.78;;;;;;;0.76;100.00;98000.44;15245961;19;20033;-77
2023/12/08 15:24:57;;;;;;;8.48;6.55;;;;;;;0.76;100.00;98008.38;15242537;19;20010;-76
2023/12/08 15:30:27;;;;;;;8.73;6.35;;;;;;;0.76;100.00;98001.25;15258067;19;20086;-78
2023/12/08 15:35:52;;;;;;;7.85;6.90;;;;;;;0.76;100.00;98000.44;15275279;19;20083;-78
2023/12/08 15:41:16;;;;;;;8.50;7.70;;;;;;;0.75;100.00;97988.97;15272111;19;20094;-78
2023/12/08 15:46:44;;;;;;;8.50;7.43;;;;;;;0.80;100.00;97988.63;15252238;19;20744;-77
2023/12/08 15:52:08;;;;;;;9.40;7.25;;;;;;;0.81;100.00;97985.00;15248350;19;20488;-77
2023/12/08 15:57:34;;;;;;;8.73;7.20;;;;;;;0.83;100.00;98004.31;15243457;19;20018;-76
2023/12/08 16:03:02;;;;;;;9.68;8.27;;;;;;;0.85;100.00;98023.63;15254330;19;20375;-76
2023/12/08 16:08:27;;;;;;;8.95;7.47;;;;;;;0.87;100.00;98026.16;15254750;19;20402;-78
2023/12/08 16:13:51;;;;;;;7.63;6.65;;;;;;;0.89;100.00;98014.47;15249081;19;20018;-76
2023/12/08 16:19:19;;;;;;;7.05;6.35;;;;;;;0.90;100.00;98021.47;15251871;19;20018;-76
2023/12/08 16:24:46;;;;;;;7.97;6.90;;;;;;;0.92;100.00;98019.56;15253865;19;20018;-76
2023/12/08 16:30:12;;;;;;;9.07;6.93;;;;;;;0.95;100.00;98017.66;15243904;19;20019;-76
2023/12/08 16:35:40;;;;;;;8.45;6.88;;;;;;;0.97;100.00;98018.41;15250548;19;20014;-76
2023/12/08 16:41:10;;;;;;;8.55;7.15;;;;;;;0.98;100.00;98033.34;15248882;19;20007;-78
2023/12/08 16:46:34;;;;;;;8.60;6.47;;;;;;;1.00;100.00;98042.06;15248913;19;20869;-78
2023/12/08 16:52:02;;;;;;;7.78;6.72;;;;;;;1.01;100.00;98033.97;15253673;19;20014;-78
2023/12/08 16:57:27;;;;;;;9.30;6.90;;;;;;;1.03;100.00;98036.50;15266576;19;20105;-78
2023/12/08 17:02:52;;;;;;;8.80;7.20;;;;;;;1.06;100.00;98044.25;15268733;19;20050;-78
2023/12/08 17:08:19;;;;;;;8.02;6.80;;;;;;;1.05;100.00;98062.00;15268736;19;20354;-78
2023/12/08 17:13:44;;;;;;;6.95;6.25;;;;;;;1.06;100.00;98046.91;15271541;19;20471;-78
2023/12/08 17:19:18;;;;;;;6.93;6.22;;;;;;;1.07;100.00;98060.06;15258217;19;20068;-76
2023/12/08 17:24:46;;;;;;;8.52;6.90;;;;;;;1.08;100.00;98063.56;15260498;19;20071;-77
2023/12/08 17:30:12;;;;;;;6.88;6.18;;;;;;;1.07;100.00;98065.34;15250072;19;20102;-75
2023/12/08 17:35:36;;;;;;;7.10;6.30;;;;;;;1.08;100.00;98082.13;15242311;19;20326;-79
2023/12/08 17:41:03;;;;;;;8.52;6.25;;;;;;;1.06;100.00;98078.75;15243479;19;20419;-76
2023/12/08 17:46:35;;;;;;;7.38;6.57;;;;;;;1.05;100.00;98095.63;15248142;19;20020;-76
2023/12/08 17:52:01;;;;;;;7.35;6.30;;;;;;;1.04;100.00;98085.97;15260634;19;20077;-77
2023/12/08 17:57:29;;;;;;;7.80;6.63;;;;;;;1.06;100.00;98092.00;15261253;19;20011;-78
2023/12/08 18:02:56;;;;;;;7.93;7.13;;;;;;;1.07;100.00;98099.84;15254956;19;20020;-77
2023/12/08 18:08:20;;;;;;;7.45;6.63;;;;;;;1.09;100.00;98102.41;15263190;19;20470;-76
2023/12/08 18:13:49;;;;;;;8.93;7.43;;;;;;;1.11;100.00;98103.16;15276918;19;20553;-77
2023/12/08 18:19:13;;;;;;;8.20;7.28;;;;;;;1.12;100.00;98123.41;15267376;19;20018;-76
2023/12/08 18:24:45;;;;;;;8.00;7.20;;;;;;;1.13;100.00;98121.59;15274264;19;20493;-78
2023/12/08 18:30:14;;;;;;;7.60;6.50;;;;;;;1.17;100.00;98128.41;15276626;19;20090;-77
2023/12/08 18:35:38;;;;;;;7.78;6.97;;;;;;;1.18;100.00;98124.75;15248473;19;20039;-77
2023/12/08 18:41:04;;;;;;;7.25;6.55;;;;;;;1.23;100.00;98133.25;15267957;19;20093;-77
2023/12/08 18:46:32;;;;;;;8.35;7.45;;;;;;;1.26;100.00;98140.13;15275452;19;20011;-77
2023/12/08 18:51:57;;;;;;;7.95;7.00;;;;;;;1.26;100.00;98138.34;15261479;19;20028;-79
2023/12/08 18:57:29;;;;;;;8.60;7.00;;;;;;;1.28;100.00;98148.84;15256656;19;20052;-78
2023/12/08 19:02:56;;;;;;;8.93;8.02;;;;;;;1.27;100.00;98157.75;15254580;19;20098;-77
2023/12/08 19:08:22;;;;;;;7.75;6.97;;;;;;;1.30;100.00;98162.88;15256179;19;21008;-77
2023/12/08 19:13:46;;;;;;;8.32;7.53;;;;;;;1.29;100.00;98159.38;15267934;19;20062;-77
2023/12/08 19:19:13;;;;;;;8.27;7.47;;;;;;;1.32;100.00;98163.59;15276149;19;20018;-78
2023/12/08 19:24:38;;;;;;;8.00;7.13;;;;;;;1.32;100.00;98174.22;15287435;19;20437;-77
2023/12/08 19:30:03;;;;;;;8.95;8.02;;;;;;;1.33;100.00;98166.13;15289259;19;20011;-77
2023/12/08 19:35:31;;;;;;;9.35;8.38;;;;;;;1.36;100.00;98167.72;15276110;19;20533;-79
2023/12/08 19:40:56;;;;;;;8.25;7.45;;;;;;;1.37;100.00;98182.69;15247228;19;20019;-76
2023/12/08 19:46:24;;;;;;;8.98;7.82;;;;;;;1.41;100.00;98183.34;15275780;19;20039;-84
2023/12/08 19:51:52;;;;;;;9.18;7.05;;;;;;;1.47;100.00;98181.06;15285690;19;20399;-83
2023/12/08 19:57:23;;;;;;;7.70;6.90;;;;;;;1.53;100.00;98199.22;15284071;19;20034;-82
2023/12/08 20:02:48;;;;;;;7.45;6.75;;;;;;;1.58;100.00;98206.03;15284372;19;20010;-82
2023/12/08 20:08:16;;;;;;;8.88;7.03;;;;;;;1.62;100.00;98218.09;15283669;19;20074;-81
2023/12/08 20:13:42;;;;;;;7.28;6.32;;;;;;;1.61;100.00;98211.97;15283965;19;20030;-80
2023/12/08 20:19:07;;;;;;;7.25;6.47;;;;;;;1.61;100.00;98227.91;15284718;19;20450;-80
2023/12/08 20:24:35;;;;;;;7.95;6.80;;;;;;;1.60;100.00;98239.47;15289833;19;20016;-80
2023/12/08 20:30:00;;;;;;;8.55;7.25;;;;;;;1.59;100.00;98240.44;15287133;19;20100;-79
2023/12/08 20:35:24;;;;;;;8.02;7.15;;;;;;;1.60;100.00;98238.59;15284351;19;20018;-80
2023/12/08 20:40:52;;;;;;;9.50;8.48;;;;;;;1.61;100.00;98251.78;15275804;19;20006;-80
2023/12/08 20:46:16;;;;;;;9.57;8.57;;;;;;;1.61;100.00;98246.47;15282126;19;20078;-78
2023/12/08 20:51:41;;;;;;;8.15;7.32;;;;;;;1.63;100.00;98249.03;15303117;19;20043;-79
2023/12/08 20:57:16;;;;;;;7.78;6.60;;;;;;;1.65;100.00;98265.69;15315591;19;20046;-77
2023/12/08 21:02:40;;;;;;;9.48;7.88;;;;;;;1.67;100.00;98261.13;15321688;19;20022;-77
2023/12/08 21:08:05;;;;;;;7.60;6.90;;;;;;;1.69;100.00;98272.50;15307778;19;20019;-81
2023/12/08 21:13:33;;;;;;;8.52;7.18;;;;;;;1.69;100.00;98259.22;15293832;19;20067;-80
2023/12/08 21:18:58;;;;;;;7.70;6.90;;;;;;;1.71;100.00;98270.56;15278389;19;20093;-80
2023/12/08 21:24:23;;;;;;;7.65;6.70;;;;;;;1.74;100.00;98275.66;15290186;19;20010;-79
2023/12/08 21:29:51;;;;;;;7.55;6.85;;;;;;;1.76;100.00;98283.53;15284203;19;20025;-80
2023/12/08 21:35:16;;;;;;;7.55;6.75;;;;;;;1.75;100.00;98285.31;15273604;19;20011;-81
2023/12/08 21:40:41;;;;;;;7.43;6.68;;;;;;;1.75;100.00;98277.34;15313285;19;20038;-80
2023/12/08 21:46:09;;;;;;;7.55;6.60;;;;;;;1.74;100.00;98280.97;15302692;19;20557;-79
2023/12/08 21:51:34;;;;;;;7.22;6.53;;;;;;;1.74;100.00;98288.94;15297147;19;20018;-81
2023/12/08 21:57:05;;;;;;;7.10;6.43;;;;;;;1.75;100.00;98290.63;15296664;19;20035;-80
2023/12/08 22:02:32;;;;;;;6.68;5.97;;;;;;;1.77;100.00;98296.69;15299571;19;20019;-80
2023/12/08 22:07:57;;;;;;;7.00;6.20;;;;;;;1.79;100.00;98297.44;15304687;19;20041;-80
2023/12/08 22:13:21;;;;;;;7.00;6.30;;;;;;;1.85;100.00;98294.34;15296530;19;20014;-79
2023/12/08 22:18:49;;;;;;;7.10;6.25;;;;;;;1.89;100.00;98304.75;15257717;19;20482;-80
2023/12/08 22:24:14;;;;;;;8.18;6.15;;;;;;;1.91;100.00;98318.78;15292778;19;20477;-78
2023/12/08 22:29:39;;;;;;;6.32;5.72;;;;;;;1.94;100.00;98329.19;15278320;19;20014;-80
2023/12/08 22:35:07;;;;;;;6.18;5.57;;;;;;;1.97;100.00;98331.63;15286575;19;20094;-80
2023/12/08 22:40:32;;;;;;;6.10;5.40;;;;;;;1.98;100.00;98342.16;15279783;19;20022;-80
2023/12/08 22:45:56;;;;;;;6.38;5.78;;;;;;;2.02;100.00;98332.16;15286747;19;20342;-80
2023/12/08 22:51:24;;;;;;;6.88;6.18;;;;;;;2.03;100.00;98333.84;15287703;19;20031;-81
2023/12/08 22:57:13;;;;;;;6.57;5.88;;;;;;;2.04;100.00;98346.19;15286561;19;20025;-79
2023/12/08 23:02:37;;;;;;;6.97;5.85;;;;;;;2.06;100.00;98346.06;15298000;19;20029;-81
2023/12/08 23:08:05;;;;;;;6.40;5.35;;;;;;;2.07;100.00;98348.59;15296364;19;20078;-80
2023/12/08 23:13:29;;;;;;;5.72;5.05;;;;;;;2.10;100.00;98350.22;15297053;19;20359;-79
2023/12/08 23:18:54;;;;;;;5.82;5.10;;;;;;;2.11;100.00;98350.09;15289074;19;20007;-79
2023/12/08 23:24:25;;;;;;;5.50;5.00;;;;;;;2.13;100.00;98344.66;15292725;19;20014;-80
2023/12/08 23:29:51;;;;;;;5.72;5.13;;;;;;;2.15;100.00;98350.72;15283934;19;20027;-80
2023/12/08 23:35:15;;;;;;;6.78;5.18;;;;;;;2.15;100.00;98346.25;15287843;19;20025;-79
2023/12/08 23:40:43;;;;;;;6.00;4.88;;;;;;;2.17;100.00;98347.97;15291868;19;20007;-79
2023/12/08 23:46:09;;;;;;;5.47;4.97;;;;;;;2.15;100.00;98348.94;15296168;19;20054;-79
2023/12/08 23:51:35;;;;;;;5.57;4.93;;;;;;;2.17;100.00;98347.97;15287711;19;20011;-79
2023/12/08 23:57:09;;;;;;;5.93;5.32;;;;;;;2.17;100.00;98347.97;15287289;19;20026;-79
